sensor_id;sensor_type;location;lat;lon;timestamp;P1;durP1;ratioP1;P2;durP2;ratioP2
8861;SDS011;4799;50.996;4.754;2023-02-23T00:01:43;81.80;;;58.57;;
8861;SDS011;4799;50.996;4.754;2023-02-23T00:04:09;79.67;;;58.83;;
8861;SDS011;4799;50.996;4.754;2023-02-23T00:06:35;72.00;;;53.07;;
8861;SDS011;4799;50.996;4.754;2023-02-23T00:09:02;81.17;;;59.27;;
8861;SDS011;4799;50.996;4.754;2023-02-23T00:11:38;73.43;;;54.70;;
8861;SDS011;4799;50.996;4.754;2023-02-23T00:14:04;82.23;;;59.67;;
8861;SDS011;4799;50.996;4.754;2023-02-23T00:16:32;94.30;;;64.10;;
8861;SDS011;4799;50.996;4.754;2023-02-23T00:18:58;76.40;;;56.23;;
8861;SDS011;4799;50.996;4.754;2023-02-23T00:24:06;83.53;;;58.87;;
8861;SDS011;4799;50.996;4.754;2023-02-23T00:26:33;109.03;;;66.87;;
8861;SDS011;4799;50.996;4.754;2023-02-23T00:29:01;81.03;;;56.13;;
8861;SDS011;4799;50.996;4.754;2023-02-23T00:31:32;75.77;;;54.77;;
8861;SDS011;4799;50.996;4.754;2023-02-23T00:33:59;72.13;;;53.07;;
8861;SDS011;4799;50.996;4.754;2023-02-23T00:36:27;75.63;;;55.47;;
8861;SDS011;4799;50.996;4.754;2023-02-23T00:38:56;83.10;;;56.77;;
8861;SDS011;4799;50.996;4.754;2023-02-23T00:41:24;73.60;;;54.63;;
8861;SDS011;4799;50.996;4.754;2023-02-23T00:43:54;79.83;;;56.03;;
8861;SDS011;4799;50.996;4.754;2023-02-23T00:46:22;85.73;;;59.07;;
8861;SDS011;4799;50.996;4.754;2023-02-23T00:48:53;83.23;;;58.40;;
8861;SDS011;4799;50.996;4.754;2023-02-23T00:51:21;86.77;;;60.13;;
8861;SDS011;4799;50.996;4.754;2023-02-23T00:53:48;75.13;;;55.27;;
8861;SDS011;4799;50.996;4.754;2023-02-23T00:56:17;92.43;;;61.80;;
8861;SDS011;4799;50.996;4.754;2023-02-23T00:58:43;86.27;;;60.93;;
8861;SDS011;4799;50.996;4.754;2023-02-23T01:01:09;86.47;;;59.67;;
8861;SDS011;4799;50.996;4.754;2023-02-23T01:03:37;89.97;;;59.93;;
8861;SDS011;4799;50.996;4.754;2023-02-23T01:06:06;83.37;;;57.80;;
8861;SDS011;4799;50.996;4.754;2023-02-23T01:08:38;136.57;;;72.57;;
8861;SDS011;4799;50.996;4.754;2023-02-23T01:11:09;68.67;;;53.90;;
8861;SDS011;4799;50.996;4.754;2023-02-23T01:13:46;86.97;;;63.27;;
8861;SDS011;4799;50.996;4.754;2023-02-23T01:16:16;77.50;;;56.87;;
8861;SDS011;4799;50.996;4.754;2023-02-23T01:18:44;71.83;;;56.17;;
8861;SDS011;4799;50.996;4.754;2023-02-23T01:21:27;83.43;;;59.43;;
8861;SDS011;4799;50.996;4.754;2023-02-23T01:24:00;70.50;;;55.13;;
8861;SDS011;4799;50.996;4.754;2023-02-23T01:26:28;81.10;;;60.07;;
8861;SDS011;4799;50.996;4.754;2023-02-23T01:28:56;69.37;;;53.87;;
8861;SDS011;4799;50.996;4.754;2023-02-23T01:31:25;77.57;;;58.60;;
8861;SDS011;4799;50.996;4.754;2023-02-23T01:33:52;63.33;;;52.63;;
8861;SDS011;4799;50.996;4.754;2023-02-23T01:36:22;66.60;;;52.97;;
8861;SDS011;4799;50.996;4.754;2023-02-23T01:38:49;72.23;;;54.93;;
8861;SDS011;4799;50.996;4.754;2023-02-23T01:41:16;65.90;;;52.83;;
8861;SDS011;4799;50.996;4.754;2023-02-23T01:46:36;69.07;;;54.27;;
8861;SDS011;4799;50.996;4.754;2023-02-23T01:49:04;64.27;;;52.57;;
8861;SDS011;4799;50.996;4.754;2023-02-23T01:51:38;64.70;;;51.97;;
8861;SDS011;4799;50.996;4.754;2023-02-23T01:54:14;87.47;;;60.60;;
8861;SDS011;4799;50.996;4.754;2023-02-23T01:56:47;66.90;;;53.37;;
8861;SDS011;4799;50.996;4.754;2023-02-23T01:59:23;72.17;;;55.83;;
8861;SDS011;4799;50.996;4.754;2023-02-23T02:01:58;67.40;;;53.33;;
8861;SDS011;4799;50.996;4.754;2023-02-23T02:04:24;71.83;;;56.17;;
8861;SDS011;4799;50.996;4.754;2023-02-23T02:06:51;69.23;;;53.33;;
8861;SDS011;4799;50.996;4.754;2023-02-23T02:09:21;64.70;;;51.50;;
8861;SDS011;4799;50.996;4.754;2023-02-23T02:11:49;72.00;;;54.57;;
8861;SDS011;4799;50.996;4.754;2023-02-23T02:14:23;67.57;;;52.73;;
8861;SDS011;4799;50.996;4.754;2023-02-23T02:23:12;68.30;;;53.40;;
8861;SDS011;4799;50.996;4.754;2023-02-23T02:34:15;67.23;;;52.43;;
8861;SDS011;4799;50.996;4.754;2023-02-23T02:43:02;60.27;;;49.40;;
8861;SDS011;4799;50.996;4.754;2023-02-23T02:46:06;68.80;;;52.23;;
8861;SDS011;4799;50.996;4.754;2023-02-23T02:48:53;66.23;;;51.27;;
8861;SDS011;4799;50.996;4.754;2023-02-23T02:56:50;70.57;;;52.87;;
8861;SDS011;4799;50.996;4.754;2023-02-23T02:59:21;65.40;;;50.33;;
8861;SDS011;4799;50.996;4.754;2023-02-23T03:02:08;67.53;;;52.37;;
8861;SDS011;4799;50.996;4.754;2023-02-23T03:04:58;68.00;;;52.30;;
8861;SDS011;4799;50.996;4.754;2023-02-23T03:07:45;57.47;;;49.47;;
8861;SDS011;4799;50.996;4.754;2023-02-23T03:23:04;64.50;;;50.53;;
8861;SDS011;4799;50.996;4.754;2023-02-23T03:26:10;75.27;;;54.13;;
8861;SDS011;4799;50.996;4.754;2023-02-23T03:29:04;76.50;;;52.93;;
8861;SDS011;4799;50.996;4.754;2023-02-23T03:32:10;78.33;;;54.97;;
8861;SDS011;4799;50.996;4.754;2023-02-23T03:38:10;91.40;;;59.90;;
8861;SDS011;4799;50.996;4.754;2023-02-23T03:41:23;116.07;;;63.90;;
8861;SDS011;4799;50.996;4.754;2023-02-23T03:44:16;97.00;;;61.20;;
8861;SDS011;4799;50.996;4.754;2023-02-23T03:47:05;99.20;;;62.47;;
8861;SDS011;4799;50.996;4.754;2023-02-23T03:49:51;97.50;;;60.27;;
8861;SDS011;4799;50.996;4.754;2023-02-23T03:52:43;110.60;;;65.57;;
8861;SDS011;4799;50.996;4.754;2023-02-23T03:55:33;127.97;;;71.17;;
8861;SDS011;4799;50.996;4.754;2023-02-23T03:58:21;155.53;;;73.13;;
8861;SDS011;4799;50.996;4.754;2023-02-23T04:01:11;127.67;;;68.13;;
8861;SDS011;4799;50.996;4.754;2023-02-23T04:03:57;139.83;;;68.17;;
8861;SDS011;4799;50.996;4.754;2023-02-23T04:06:43;130.43;;;62.83;;
8861;SDS011;4799;50.996;4.754;2023-02-23T04:09:30;144.90;;;65.00;;
8861;SDS011;4799;50.996;4.754;2023-02-23T04:12:17;124.83;;;61.57;;
8861;SDS011;4799;50.996;4.754;2023-02-23T04:18:05;114.23;;;57.87;;
8861;SDS011;4799;50.996;4.754;2023-02-23T04:20:32;122.73;;;60.27;;
8861;SDS011;4799;50.996;4.754;2023-02-23T04:22:57;156.63;;;63.00;;
8861;SDS011;4799;50.996;4.754;2023-02-23T04:25:23;139.63;;;59.93;;
8861;SDS011;4799;50.996;4.754;2023-02-23T04:27:50;113.73;;;54.70;;
8861;SDS011;4799;50.996;4.754;2023-02-23T04:30:16;119.50;;;52.53;;
8861;SDS011;4799;50.996;4.754;2023-02-23T04:32:42;116.97;;;51.80;;
8861;SDS011;4799;50.996;4.754;2023-02-23T04:35:10;134.27;;;55.43;;
8861;SDS011;4799;50.996;4.754;2023-02-23T04:37:37;112.60;;;52.57;;
8861;SDS011;4799;50.996;4.754;2023-02-23T04:40:03;107.73;;;51.83;;
8861;SDS011;4799;50.996;4.754;2023-02-23T04:42:30;117.43;;;54.00;;
8861;SDS011;4799;50.996;4.754;2023-02-23T04:44:56;108.20;;;51.73;;
8861;SDS011;4799;50.996;4.754;2023-02-23T04:47:23;107.73;;;51.03;;
8861;SDS011;4799;50.996;4.754;2023-02-23T04:49:49;141.10;;;58.87;;
8861;SDS011;4799;50.996;4.754;2023-02-23T04:52:15;157.53;;;58.93;;
8861;SDS011;4799;50.996;4.754;2023-02-23T04:54:41;115.90;;;54.50;;
8861;SDS011;4799;50.996;4.754;2023-02-23T04:57:07;108.30;;;51.87;;
8861;SDS011;4799;50.996;4.754;2023-02-23T04:59:34;142.40;;;60.80;;
8861;SDS011;4799;50.996;4.754;2023-02-23T05:02:00;97.73;;;51.07;;
8861;SDS011;4799;50.996;4.754;2023-02-23T05:04:26;128.40;;;55.97;;
8861;SDS011;4799;50.996;4.754;2023-02-23T05:06:53;144.93;;;57.73;;
8861;SDS011;4799;50.996;4.754;2023-02-23T05:09:18;135.07;;;57.03;;
8861;SDS011;4799;50.996;4.754;2023-02-23T05:11:45;124.97;;;55.50;;
8861;SDS011;4799;50.996;4.754;2023-02-23T05:14:11;156.07;;;60.73;;
8861;SDS011;4799;50.996;4.754;2023-02-23T05:16:37;146.00;;;58.80;;
8861;SDS011;4799;50.996;4.754;2023-02-23T05:19:03;132.70;;;56.00;;
8861;SDS011;4799;50.996;4.754;2023-02-23T05:21:29;120.57;;;52.90;;
8861;SDS011;4799;50.996;4.754;2023-02-23T05:23:54;107.23;;;51.87;;
8861;SDS011;4799;50.996;4.754;2023-02-23T05:26:21;136.03;;;57.07;;
8861;SDS011;4799;50.996;4.754;2023-02-23T05:28:47;133.70;;;56.60;;
8861;SDS011;4799;50.996;4.754;2023-02-23T05:31:14;154.00;;;63.67;;
8861;SDS011;4799;50.996;4.754;2023-02-23T05:33:40;149.70;;;60.37;;
8861;SDS011;4799;50.996;4.754;2023-02-23T05:36:14;120.83;;;55.23;;
8861;SDS011;4799;50.996;4.754;2023-02-23T05:38:42;150.53;;;60.93;;
8861;SDS011;4799;50.996;4.754;2023-02-23T05:41:09;114.37;;;54.90;;
8861;SDS011;4799;50.996;4.754;2023-02-23T05:43:36;126.23;;;57.93;;
8861;SDS011;4799;50.996;4.754;2023-02-23T05:46:06;130.37;;;59.80;;
8861;SDS011;4799;50.996;4.754;2023-02-23T05:48:36;130.33;;;58.90;;
8861;SDS011;4799;50.996;4.754;2023-02-23T05:51:09;139.50;;;60.03;;
8861;SDS011;4799;50.996;4.754;2023-02-23T05:53:37;124.63;;;56.97;;
8861;SDS011;4799;50.996;4.754;2023-02-23T05:56:03;129.73;;;58.93;;
8861;SDS011;4799;50.996;4.754;2023-02-23T05:58:31;131.83;;;59.33;;
8861;SDS011;4799;50.996;4.754;2023-02-23T06:00:57;121.73;;;57.30;;
8861;SDS011;4799;50.996;4.754;2023-02-23T06:03:22;131.33;;;59.83;;
8861;SDS011;4799;50.996;4.754;2023-02-23T06:05:52;123.90;;;59.40;;
8861;SDS011;4799;50.996;4.754;2023-02-23T06:08:18;134.67;;;60.53;;
8861;SDS011;4799;50.996;4.754;2023-02-23T06:10:44;127.93;;;56.03;;
8861;SDS011;4799;50.996;4.754;2023-02-23T06:13:11;136.47;;;57.70;;
8861;SDS011;4799;50.996;4.754;2023-02-23T06:15:37;116.27;;;54.17;;
8861;SDS011;4799;50.996;4.754;2023-02-23T06:18:03;109.60;;;54.63;;
8861;SDS011;4799;50.996;4.754;2023-02-23T06:20:29;153.47;;;62.67;;
8861;SDS011;4799;50.996;4.754;2023-02-23T06:22:55;159.93;;;65.83;;
8861;SDS011;4799;50.996;4.754;2023-02-23T06:25:22;147.83;;;62.13;;
8861;SDS011;4799;50.996;4.754;2023-02-23T06:27:48;136.40;;;61.43;;
8861;SDS011;4799;50.996;4.754;2023-02-23T06:30:13;133.27;;;60.90;;
8861;SDS011;4799;50.996;4.754;2023-02-23T06:32:39;129.63;;;61.03;;
8861;SDS011;4799;50.996;4.754;2023-02-23T06:35:06;133.30;;;61.03;;
8861;SDS011;4799;50.996;4.754;2023-02-23T06:37:33;141.27;;;62.27;;
8861;SDS011;4799;50.996;4.754;2023-02-23T06:40:00;137.90;;;62.73;;
8861;SDS011;4799;50.996;4.754;2023-02-23T06:42:26;131.40;;;58.53;;
8861;SDS011;4799;50.996;4.754;2023-02-23T06:44:52;132.37;;;59.80;;
8861;SDS011;4799;50.996;4.754;2023-02-23T06:47:18;130.87;;;61.47;;
8861;SDS011;4799;50.996;4.754;2023-02-23T06:49:44;115.43;;;56.70;;
8861;SDS011;4799;50.996;4.754;2023-02-23T06:52:10;157.17;;;65.60;;
8861;SDS011;4799;50.996;4.754;2023-02-23T06:54:38;136.60;;;64.87;;
8861;SDS011;4799;50.996;4.754;2023-02-23T06:57:05;139.03;;;62.80;;
8861;SDS011;4799;50.996;4.754;2023-02-23T06:59:35;132.40;;;62.33;;
8861;SDS011;4799;50.996;4.754;2023-02-23T07:02:01;136.67;;;66.67;;
8861;SDS011;4799;50.996;4.754;2023-02-23T07:04:30;139.93;;;63.80;;
8861;SDS011;4799;50.996;4.754;2023-02-23T07:06:56;113.20;;;57.90;;
8861;SDS011;4799;50.996;4.754;2023-02-23T07:09:22;138.87;;;62.97;;
8861;SDS011;4799;50.996;4.754;2023-02-23T07:11:48;136.50;;;68.57;;
8861;SDS011;4799;50.996;4.754;2023-02-23T07:14:14;132.07;;;63.47;;
8861;SDS011;4799;50.996;4.754;2023-02-23T07:16:40;159.37;;;70.63;;
8861;SDS011;4799;50.996;4.754;2023-02-23T07:19:05;147.17;;;69.97;;
8861;SDS011;4799;50.996;4.754;2023-02-23T07:21:31;154.30;;;69.93;;
8861;SDS011;4799;50.996;4.754;2023-02-23T07:23:58;142.10;;;65.33;;
8861;SDS011;4799;50.996;4.754;2023-02-23T07:26:24;178.73;;;76.73;;
8861;SDS011;4799;50.996;4.754;2023-02-23T07:28:50;154.63;;;70.57;;
8861;SDS011;4799;50.996;4.754;2023-02-23T07:31:16;170.00;;;74.40;;
8861;SDS011;4799;50.996;4.754;2023-02-23T07:33:42;148.70;;;69.90;;
8861;SDS011;4799;50.996;4.754;2023-02-23T07:36:08;167.17;;;72.93;;
8861;SDS011;4799;50.996;4.754;2023-02-23T07:38:34;169.27;;;72.93;;
8861;SDS011;4799;50.996;4.754;2023-02-23T07:41:00;168.63;;;72.90;;
8861;SDS011;4799;50.996;4.754;2023-02-23T07:43:27;184.67;;;73.47;;
8861;SDS011;4799;50.996;4.754;2023-02-23T07:45:53;178.27;;;76.60;;
8861;SDS011;4799;50.996;4.754;2023-02-23T07:48:19;151.13;;;70.63;;
8861;SDS011;4799;50.996;4.754;2023-02-23T07:50:45;146.83;;;67.30;;
8861;SDS011;4799;50.996;4.754;2023-02-23T07:53:12;127.27;;;64.80;;
8861;SDS011;4799;50.996;4.754;2023-02-23T07:55:39;166.27;;;74.57;;
8861;SDS011;4799;50.996;4.754;2023-02-23T07:58:05;175.10;;;74.57;;
8861;SDS011;4799;50.996;4.754;2023-02-23T08:00:32;165.00;;;75.10;;
8861;SDS011;4799;50.996;4.754;2023-02-23T08:02:59;138.77;;;65.67;;
8861;SDS011;4799;50.996;4.754;2023-02-23T08:05:25;148.70;;;71.43;;
8861;SDS011;4799;50.996;4.754;2023-02-23T08:07:52;136.93;;;68.07;;
8861;SDS011;4799;50.996;4.754;2023-02-23T08:10:22;135.73;;;68.60;;
8861;SDS011;4799;50.996;4.754;2023-02-23T08:12:47;136.87;;;68.00;;
8861;SDS011;4799;50.996;4.754;2023-02-23T08:15:13;131.80;;;65.60;;
8861;SDS011;4799;50.996;4.754;2023-02-23T08:17:39;130.77;;;65.50;;
8861;SDS011;4799;50.996;4.754;2023-02-23T08:20:05;117.40;;;61.47;;
8861;SDS011;4799;50.996;4.754;2023-02-23T08:22:32;122.93;;;61.30;;
8861;SDS011;4799;50.996;4.754;2023-02-23T08:24:58;145.77;;;69.80;;
8861;SDS011;4799;50.996;4.754;2023-02-23T08:27:24;121.23;;;60.50;;
8861;SDS011;4799;50.996;4.754;2023-02-23T08:29:53;129.87;;;65.87;;
8861;SDS011;4799;50.996;4.754;2023-02-23T08:32:20;124.93;;;64.07;;
8861;SDS011;4799;50.996;4.754;2023-02-23T08:34:46;125.57;;;64.13;;
8861;SDS011;4799;50.996;4.754;2023-02-23T08:37:12;126.33;;;65.33;;
8861;SDS011;4799;50.996;4.754;2023-02-23T08:39:38;117.23;;;61.27;;
8861;SDS011;4799;50.996;4.754;2023-02-23T08:42:04;117.33;;;62.40;;
8861;SDS011;4799;50.996;4.754;2023-02-23T08:44:30;108.17;;;58.63;;
8861;SDS011;4799;50.996;4.754;2023-02-23T08:46:56;115.23;;;61.70;;
8861;SDS011;4799;50.996;4.754;2023-02-23T08:49:22;109.43;;;59.80;;
8861;SDS011;4799;50.996;4.754;2023-02-23T08:51:50;102.53;;;58.53;;
8861;SDS011;4799;50.996;4.754;2023-02-23T08:54:16;106.77;;;59.27;;
8861;SDS011;4799;50.996;4.754;2023-02-23T08:56:43;101.83;;;57.30;;
8861;SDS011;4799;50.996;4.754;2023-02-23T08:59:10;98.53;;;57.17;;
8861;SDS011;4799;50.996;4.754;2023-02-23T09:01:37;96.20;;;55.17;;
8861;SDS011;4799;50.996;4.754;2023-02-23T09:04:03;89.93;;;54.90;;
8861;SDS011;4799;50.996;4.754;2023-02-23T09:06:31;92.53;;;55.10;;
8861;SDS011;4799;50.996;4.754;2023-02-23T09:08:59;84.03;;;52.77;;
8861;SDS011;4799;50.996;4.754;2023-02-23T09:11:26;80.57;;;52.63;;
8861;SDS011;4799;50.996;4.754;2023-02-23T09:13:52;86.87;;;54.43;;
8861;SDS011;4799;50.996;4.754;2023-02-23T09:16:17;80.70;;;52.30;;
8861;SDS011;4799;50.996;4.754;2023-02-23T09:18:43;77.90;;;50.83;;
8861;SDS011;4799;50.996;4.754;2023-02-23T09:21:13;80.23;;;51.27;;
8861;SDS011;4799;50.996;4.754;2023-02-23T09:23:43;82.93;;;53.07;;
8861;SDS011;4799;50.996;4.754;2023-02-23T09:26:14;74.50;;;49.20;;
8861;SDS011;4799;50.996;4.754;2023-02-23T09:28:41;70.33;;;48.63;;
8861;SDS011;4799;50.996;4.754;2023-02-23T09:31:08;69.47;;;47.57;;
8861;SDS011;4799;50.996;4.754;2023-02-23T09:33:35;71.17;;;47.63;;
8861;SDS011;4799;50.996;4.754;2023-02-23T09:36:08;72.00;;;49.57;;
8861;SDS011;4799;50.996;4.754;2023-02-23T09:38:42;71.87;;;47.43;;
8861;SDS011;4799;50.996;4.754;2023-02-23T09:44:36;64.23;;;44.40;;
8861;SDS011;4799;50.996;4.754;2023-02-23T09:47:13;65.37;;;44.50;;
8861;SDS011;4799;50.996;4.754;2023-02-23T09:49:57;63.30;;;44.30;;
8861;SDS011;4799;50.996;4.754;2023-02-23T09:52:27;60.40;;;42.93;;
8861;SDS011;4799;50.996;4.754;2023-02-23T09:55:04;61.03;;;42.23;;
8861;SDS011;4799;50.996;4.754;2023-02-23T09:57:38;58.03;;;41.67;;
8861;SDS011;4799;50.996;4.754;2023-02-23T10:00:12;56.13;;;40.53;;
8861;SDS011;4799;50.996;4.754;2023-02-23T10:05:17;55.00;;;40.33;;
8861;SDS011;4799;50.996;4.754;2023-02-23T10:07:46;54.50;;;39.87;;
8861;SDS011;4799;50.996;4.754;2023-02-23T10:10:25;55.37;;;40.23;;
8861;SDS011;4799;50.996;4.754;2023-02-23T10:21:01;50.60;;;37.67;;
8861;SDS011;4799;50.996;4.754;2023-02-23T10:23:41;47.63;;;37.13;;
8861;SDS011;4799;50.996;4.754;2023-02-23T10:26:13;46.23;;;35.60;;
8861;SDS011;4799;50.996;4.754;2023-02-23T10:28:44;44.87;;;35.00;;
8861;SDS011;4799;50.996;4.754;2023-02-23T10:33:56;43.67;;;35.03;;
8861;SDS011;4799;50.996;4.754;2023-02-23T10:36:34;42.30;;;33.13;;
8861;SDS011;4799;50.996;4.754;2023-02-23T10:39:05;40.70;;;32.43;;
8861;SDS011;4799;50.996;4.754;2023-02-23T10:41:33;40.23;;;32.53;;
8861;SDS011;4799;50.996;4.754;2023-02-23T10:44:03;38.47;;;31.53;;
8861;SDS011;4799;50.996;4.754;2023-02-23T10:46:34;38.47;;;30.50;;
8861;SDS011;4799;50.996;4.754;2023-02-23T10:49:03;33.03;;;28.00;;
8861;SDS011;4799;50.996;4.754;2023-02-23T10:51:32;36.50;;;28.87;;
8861;SDS011;4799;50.996;4.754;2023-02-23T10:57:09;35.17;;;28.93;;
8861;SDS011;4799;50.996;4.754;2023-02-23T10:59:56;35.10;;;28.80;;
8861;SDS011;4799;50.996;4.754;2023-02-23T11:02:23;34.23;;;28.13;;
8861;SDS011;4799;50.996;4.754;2023-02-23T11:04:54;33.07;;;28.30;;
8861;SDS011;4799;50.996;4.754;2023-02-23T11:07:22;33.07;;;27.33;;
8861;SDS011;4799;50.996;4.754;2023-02-23T11:09:53;33.93;;;28.90;;
8861;SDS011;4799;50.996;4.754;2023-02-23T11:12:24;35.57;;;29.47;;
8861;SDS011;4799;50.996;4.754;2023-02-23T11:14:56;36.83;;;29.73;;
8861;SDS011;4799;50.996;4.754;2023-02-23T11:17:24;33.27;;;27.93;;
8861;SDS011;4799;50.996;4.754;2023-02-23T11:19:56;32.17;;;27.53;;
8861;SDS011;4799;50.996;4.754;2023-02-23T11:22:29;30.87;;;26.50;;
8861;SDS011;4799;50.996;4.754;2023-02-23T11:24:58;33.42;;;29.83;;
8861;SDS011;4799;50.996;4.754;2023-02-23T11:27:27;35.20;;;28.30;;
8861;SDS011;4799;50.996;4.754;2023-02-23T11:29:55;32.77;;;27.57;;
8861;SDS011;4799;50.996;4.754;2023-02-23T11:32:31;31.57;;;27.57;;
8861;SDS011;4799;50.996;4.754;2023-02-23T11:37:40;33.73;;;29.13;;
8861;SDS011;4799;50.996;4.754;2023-02-23T11:40:20;33.00;;;29.50;;
8861;SDS011;4799;50.996;4.754;2023-02-23T11:42:56;32.87;;;29.27;;
8861;SDS011;4799;50.996;4.754;2023-02-23T11:45:31;29.27;;;26.10;;
8861;SDS011;4799;50.996;4.754;2023-02-23T11:48:31;33.23;;;29.60;;
8861;SDS011;4799;50.996;4.754;2023-02-23T11:51:34;34.97;;;29.57;;
8861;SDS011;4799;50.996;4.754;2023-02-23T11:54:02;35.37;;;30.93;;
8861;SDS011;4799;50.996;4.754;2023-02-23T11:56:30;37.83;;;31.17;;
8861;SDS011;4799;50.996;4.754;2023-02-23T11:59:13;36.90;;;31.20;;
8861;SDS011;4799;50.996;4.754;2023-02-23T12:10:33;38.93;;;32.93;;
8861;SDS011;4799;50.996;4.754;2023-02-23T12:12:49;37.67;;;33.57;;
8861;SDS011;4799;50.996;4.754;2023-02-23T12:18:31;39.87;;;33.40;;
8861;SDS011;4799;50.996;4.754;2023-02-23T12:29:43;43.33;;;36.57;;
8861;SDS011;4799;50.996;4.754;2023-02-23T12:40:33;42.40;;;35.80;;
8861;SDS011;4799;50.996;4.754;2023-02-23T12:43:10;42.67;;;36.37;;
8861;SDS011;4799;50.996;4.754;2023-02-23T12:45:41;41.30;;;35.80;;
8861;SDS011;4799;50.996;4.754;2023-02-23T12:53:44;43.77;;;38.07;;
8861;SDS011;4799;50.996;4.754;2023-02-23T12:58:49;42.33;;;36.07;;
8861;SDS011;4799;50.996;4.754;2023-02-23T13:01:38;47.73;;;35.77;;
8861;SDS011;4799;50.996;4.754;2023-02-23T13:07:28;41.63;;;35.27;;
8861;SDS011;4799;50.996;4.754;2023-02-23T13:12:51;40.93;;;36.23;;
8861;SDS011;4799;50.996;4.754;2023-02-23T13:24:14;43.37;;;37.47;;
8861;SDS011;4799;50.996;4.754;2023-02-23T13:31:56;41.33;;;34.37;;
8861;SDS011;4799;50.996;4.754;2023-02-23T13:36:52;40.97;;;34.20;;
8861;SDS011;4799;50.996;4.754;2023-02-23T13:47:46;39.80;;;31.80;;
8861;SDS011;4799;50.996;4.754;2023-02-23T13:50:43;39.67;;;33.13;;
8861;SDS011;4799;50.996;4.754;2023-02-23T13:56:07;38.90;;;31.63;;
8861;SDS011;4799;50.996;4.754;2023-02-23T13:58:33;39.33;;;32.80;;
8861;SDS011;4799;50.996;4.754;2023-02-23T14:02:01;41.77;;;33.63;;
8861;SDS011;4799;50.996;4.754;2023-02-23T14:04:04;42.93;;;33.20;;
8861;SDS011;4799;50.996;4.754;2023-02-23T14:06:37;39.43;;;33.37;;
8861;SDS011;4799;50.996;4.754;2023-02-23T14:09:14;34.50;;;29.97;;
8861;SDS011;4799;50.996;4.754;2023-02-23T14:17:36;32.60;;;27.87;;
8861;SDS011;4799;50.996;4.754;2023-02-23T14:20:13;30.40;;;26.77;;
8861;SDS011;4799;50.996;4.754;2023-02-23T14:38:59;32.43;;;28.53;;
8861;SDS011;4799;50.996;4.754;2023-02-23T14:44:25;33.23;;;28.13;;
8861;SDS011;4799;50.996;4.754;2023-02-23T14:46:59;31.00;;;27.23;;
8861;SDS011;4799;50.996;4.754;2023-02-23T14:49:36;30.70;;;26.80;;
8861;SDS011;4799;50.996;4.754;2023-02-23T14:52:18;35.03;;;28.33;;
8861;SDS011;4799;50.996;4.754;2023-02-23T14:55:42;31.70;;;27.80;;
8861;SDS011;4799;50.996;4.754;2023-02-23T14:57:50;30.37;;;27.10;;
8861;SDS011;4799;50.996;4.754;2023-02-23T15:00:22;30.90;;;27.60;;
8861;SDS011;4799;50.996;4.754;2023-02-23T15:02:58;27.90;;;24.53;;
8861;SDS011;4799;50.996;4.754;2023-02-23T15:05:40;26.07;;;23.37;;
8861;SDS011;4799;50.996;4.754;2023-02-23T15:08:08;24.37;;;21.77;;
8861;SDS011;4799;50.996;4.754;2023-02-23T15:10:43;22.77;;;20.23;;
8861;SDS011;4799;50.996;4.754;2023-02-23T15:15:53;20.63;;;18.43;;
8861;SDS011;4799;50.996;4.754;2023-02-23T15:18:27;19.87;;;17.87;;
8861;SDS011;4799;50.996;4.754;2023-02-23T15:20:56;18.97;;;17.07;;
8861;SDS011;4799;50.996;4.754;2023-02-23T15:23:23;19.40;;;17.50;;
8861;SDS011;4799;50.996;4.754;2023-02-23T15:25:49;19.20;;;17.40;;
8861;SDS011;4799;50.996;4.754;2023-02-23T15:28:20;19.60;;;17.53;;
8861;SDS011;4799;50.996;4.754;2023-02-23T15:30:49;19.27;;;17.33;;
8861;SDS011;4799;50.996;4.754;2023-02-23T15:33:18;19.17;;;17.27;;
8861;SDS011;4799;50.996;4.754;2023-02-23T15:35:54;18.70;;;16.90;;
8861;SDS011;4799;50.996;4.754;2023-02-23T15:38:27;18.93;;;17.13;;
8861;SDS011;4799;50.996;4.754;2023-02-23T15:40:57;18.20;;;16.50;;
8861;SDS011;4799;50.996;4.754;2023-02-23T15:43:26;19.20;;;16.80;;
8861;SDS011;4799;50.996;4.754;2023-02-23T15:45:54;17.70;;;16.03;;
8861;SDS011;4799;50.996;4.754;2023-02-23T15:48:23;17.37;;;15.70;;
8861;SDS011;4799;50.996;4.754;2023-02-23T15:50:56;17.00;;;15.50;;
8861;SDS011;4799;50.996;4.754;2023-02-23T15:53:27;16.90;;;15.40;;
8861;SDS011;4799;50.996;4.754;2023-02-23T15:56:01;16.40;;;14.93;;
8861;SDS011;4799;50.996;4.754;2023-02-23T15:58:51;15.20;;;13.80;;
8861;SDS011;4799;50.996;4.754;2023-02-23T16:01:21;15.93;;;14.60;;
8861;SDS011;4799;50.996;4.754;2023-02-23T16:06:25;15.10;;;13.60;;
8861;SDS011;4799;50.996;4.754;2023-02-23T16:09:01;14.70;;;13.40;;
8861;SDS011;4799;50.996;4.754;2023-02-23T16:14:24;15.20;;;13.70;;
8861;SDS011;4799;50.996;4.754;2023-02-23T16:22:36;14.50;;;13.00;;
8861;SDS011;4799;50.996;4.754;2023-02-23T16:25:07;16.10;;;14.60;;
8861;SDS011;4799;50.996;4.754;2023-02-23T16:27:43;15.40;;;14.00;;
8861;SDS011;4799;50.996;4.754;2023-02-23T16:30:19;15.83;;;14.33;;
8861;SDS011;4799;50.996;4.754;2023-02-23T16:33:13;15.50;;;14.00;;
8861;SDS011;4799;50.996;4.754;2023-02-23T16:35:49;15.47;;;14.00;;
8861;SDS011;4799;50.996;4.754;2023-02-23T16:38:26;14.37;;;12.97;;
8861;SDS011;4799;50.996;4.754;2023-02-23T16:40:58;15.87;;;14.37;;
8861;SDS011;4799;50.996;4.754;2023-02-23T16:43:26;16.27;;;14.67;;
8861;SDS011;4799;50.996;4.754;2023-02-23T16:45:53;15.47;;;13.97;;
8861;SDS011;4799;50.996;4.754;2023-02-23T16:48:20;15.57;;;14.07;;
8861;SDS011;4799;50.996;4.754;2023-02-23T16:50:47;15.80;;;14.30;;
8861;SDS011;4799;50.996;4.754;2023-02-23T16:53:13;15.63;;;14.03;;
8861;SDS011;4799;50.996;4.754;2023-02-23T16:55:50;15.77;;;14.27;;
8861;SDS011;4799;50.996;4.754;2023-02-23T16:58:21;14.63;;;13.17;;
8861;SDS011;4799;50.996;4.754;2023-02-23T17:00:49;13.10;;;11.90;;
8861;SDS011;4799;50.996;4.754;2023-02-23T17:03:17;14.40;;;13.10;;
8861;SDS011;4799;50.996;4.754;2023-02-23T17:05:45;12.50;;;11.20;;
8861;SDS011;4799;50.996;4.754;2023-02-23T17:08:12;8.60;;;7.80;;
8861;SDS011;4799;50.996;4.754;2023-02-23T17:10:38;9.73;;;8.27;;
8861;SDS011;4799;50.996;4.754;2023-02-23T17:13:06;8.20;;;7.50;;
8861;SDS011;4799;50.996;4.754;2023-02-23T17:15:39;7.97;;;7.23;;
8861;SDS011;4799;50.996;4.754;2023-02-23T17:18:09;7.90;;;7.20;;
8861;SDS011;4799;50.996;4.754;2023-02-23T17:20:35;7.90;;;7.20;;
8861;SDS011;4799;50.996;4.754;2023-02-23T17:23:01;7.67;;;6.97;;
8861;SDS011;4799;50.996;4.754;2023-02-23T17:25:27;7.50;;;6.70;;
8861;SDS011;4799;50.996;4.754;2023-02-23T17:27:53;7.57;;;6.83;;
8861;SDS011;4799;50.996;4.754;2023-02-23T17:30:20;8.80;;;7.03;;
8861;SDS011;4799;50.996;4.754;2023-02-23T17:32:47;7.57;;;6.87;;
8861;SDS011;4799;50.996;4.754;2023-02-23T17:35:14;9.37;;;7.00;;
8861;SDS011;4799;50.996;4.754;2023-02-23T17:37:40;8.77;;;7.60;;
8861;SDS011;4799;50.996;4.754;2023-02-23T17:40:11;9.43;;;8.03;;
8861;SDS011;4799;50.996;4.754;2023-02-23T17:42:40;9.53;;;8.30;;
8861;SDS011;4799;50.996;4.754;2023-02-23T17:45:07;9.10;;;8.20;;
8861;SDS011;4799;50.996;4.754;2023-02-23T17:47:34;8.97;;;8.00;;
8861;SDS011;4799;50.996;4.754;2023-02-23T17:50:02;8.77;;;7.97;;
8861;SDS011;4799;50.996;4.754;2023-02-23T17:52:28;9.63;;;8.63;;
8861;SDS011;4799;50.996;4.754;2023-02-23T17:54:54;8.43;;;7.73;;
8861;SDS011;4799;50.996;4.754;2023-02-23T17:57:20;9.77;;;8.50;;
8861;SDS011;4799;50.996;4.754;2023-02-23T17:59:47;9.00;;;7.77;;
8861;SDS011;4799;50.996;4.754;2023-02-23T18:02:13;8.57;;;7.77;;
8861;SDS011;4799;50.996;4.754;2023-02-23T18:04:40;8.53;;;7.73;;
8861;SDS011;4799;50.996;4.754;2023-02-23T18:07:06;10.80;;;9.70;;
8861;SDS011;4799;50.996;4.754;2023-02-23T18:09:32;11.20;;;10.00;;
8861;SDS011;4799;50.996;4.754;2023-02-23T18:11:59;10.47;;;9.47;;